createdAt,value
2018-02-01T00:00:03.987Z,6.27
2018-02-01T00:04:57.872Z,2.13
2018-02-01T00:06:58.982Z,5.03
2018-02-01T00:09:03.505Z,16.93
2018-02-01T00:11:04.689Z,3.50
2018-02-01T00:13:05.711Z,16.70
2018-02-01T00:15:06.723Z,5.83
2018-02-01T00:17:07.777Z,4.50
2018-02-01T00:19:12.096Z,21.97
2018-02-01T00:21:22.062Z,8.43
2018-02-01T00:23:23.174Z,7.30
2018-02-01T00:25:31.902Z,12.00
2018-02-01T00:27:34.105Z,9.47
2018-02-01T00:29:35.079Z,6.63
2018-02-01T00:31:36.082Z,3.87
2018-02-01T00:33:37.126Z,4.20
2018-02-01T00:43:03.698Z,3.03
2018-02-01T00:45:07.275Z,14.37
2018-02-01T00:49:26.109Z,6.07
2018-02-01T00:51:27.175Z,8.93
2018-02-01T00:56:00.101Z,6.93
2018-02-01T01:00:50.056Z,9.10
2018-02-01T01:03:06.877Z,9.73
2018-02-01T01:05:07.839Z,12.70
2018-02-01T01:07:08.840Z,12.73
2018-02-01T01:11:43.626Z,13.13
2018-02-01T01:13:44.681Z,11.77
2018-02-01T01:15:45.714Z,14.73
2018-02-01T01:17:46.712Z,9.17
2018-02-01T01:19:47.675Z,9.87
2018-02-01T01:22:02.883Z,9.53
2018-02-01T01:24:16.552Z,11.43
2018-02-01T01:26:17.763Z,7.83
2018-02-01T01:28:18.826Z,20.57
2018-02-01T01:30:19.800Z,17.40
2018-02-01T01:32:20.781Z,11.57
2018-02-01T01:34:21.745Z,16.00
2018-02-01T01:36:27.035Z,17.70
2018-02-01T01:38:28.143Z,15.10
2018-02-01T01:40:29.132Z,12.40
2018-02-01T01:42:33.476Z,14.60
2018-02-01T01:44:35.585Z,15.43
2018-02-01T01:46:36.535Z,20.83
2018-02-01T01:48:37.551Z,17.83
2018-02-01T01:55:39.314Z,19.97
2018-02-01T01:57:52.800Z,9.87
2018-02-01T02:02:30.325Z,12.83
2018-02-01T02:04:31.552Z,8.73
2018-02-01T02:08:55.412Z,13.07
2018-02-01T02:11:05.164Z,14.97
2018-02-01T02:13:06.113Z,20.20
2018-02-01T02:15:18.685Z,13.00
2018-02-01T02:17:19.692Z,12.37
2018-02-01T02:19:24.195Z,13.67
2018-02-01T02:21:25.345Z,13.53
2018-02-01T02:26:00.618Z,12.10
2018-02-01T02:28:01.673Z,9.70
2018-02-01T02:30:02.673Z,16.00
2018-02-01T02:32:03.673Z,13.63
2018-02-01T02:38:46.287Z,18.73
2018-02-01T02:40:58.156Z,14.80
2018-02-01T02:42:59.224Z,14.23
2018-02-01T02:45:00.594Z,15.93
2018-02-01T02:47:04.889Z,12.27
2018-02-01T02:49:22.588Z,18.70
2018-02-01T02:51:24.328Z,11.30
2018-02-01T02:53:25.281Z,17.10
2018-02-01T02:55:30.798Z,19.00
2018-02-01T02:57:31.825Z,17.83
2018-02-01T03:01:40.011Z,20.13
2018-02-01T03:03:41.090Z,20.40
2018-02-01T03:05:56.759Z,24.63
2018-02-01T03:07:58.004Z,22.17
2018-02-01T03:10:05.519Z,19.63
2018-02-01T03:12:06.496Z,30.83
2018-02-01T03:14:07.669Z,30.50
2018-02-01T03:16:08.683Z,25.03
2018-02-01T03:18:09.696Z,34.70
2018-02-01T03:20:12.968Z,28.63
2018-02-01T03:22:14.056Z,31.03
2018-02-01T03:24:15.009Z,23.83
2018-02-01T03:26:16.076Z,25.20
2018-02-01T03:32:50.878Z,36.90
2018-02-01T03:34:51.871Z,27.83
2018-02-01T03:36:52.859Z,21.43
2018-02-01T03:38:53.845Z,23.40
2018-02-01T03:41:04.375Z,26.73
2018-02-01T03:48:07.650Z,26.87
2018-02-01T03:52:46.329Z,36.00
2018-02-01T03:54:47.400Z,27.20
2018-02-01T03:56:58.138Z,28.97
2018-02-01T03:59:02.371Z,37.70
2018-02-01T04:01:21.204Z,23.87
2018-02-01T04:03:32.139Z,24.13
2018-02-01T04:05:34.168Z,20.93
2018-02-01T04:07:35.163Z,22.37
2018-02-01T04:09:36.245Z,24.60
2018-02-01T04:11:37.206Z,35.10
2018-02-01T04:13:51.722Z,29.20
2018-02-01T04:15:52.754Z,33.83
2018-02-01T04:17:58.071Z,24.57
2018-02-01T04:20:03.348Z,30.83
2018-02-01T04:22:07.879Z,31.43
2018-02-01T04:24:10.047Z,23.03
2018-02-01T04:26:21.002Z,32.67
2018-02-01T04:28:22.161Z,32.97
2018-02-01T04:30:23.120Z,32.67
2018-02-01T04:34:44.402Z,34.80
2018-02-01T04:36:46.340Z,28.10
2018-02-01T04:38:47.323Z,33.33
2018-02-01T04:40:48.395Z,23.53
2018-02-01T04:43:03.979Z,24.63
2018-02-01T06:07:32.450Z,26.67
2018-02-01T06:09:35.347Z,35.47
2018-02-01T06:11:40.712Z,39.83
2018-02-01T06:13:42.740Z,37.20
2018-02-01T06:15:49.807Z,30.17
2018-02-01T06:17:50.907Z,27.00
2018-02-01T06:22:39.683Z,30.03
2018-02-01T06:24:57.812Z,30.70
2018-02-01T06:27:09.349Z,32.03
2018-02-01T06:29:10.376Z,39.93
2018-02-01T06:31:11.340Z,42.73
2018-02-01T06:33:19.711Z,38.50
2018-02-01T06:35:20.672Z,30.23
2018-02-01T06:37:21.646Z,26.53
2018-02-01T06:39:23.781Z,43.97
2018-02-01T06:41:24.780Z,34.90
2018-02-01T06:43:25.759Z,33.07
2018-02-01T06:45:26.829Z,40.87
2018-02-01T06:47:27.801Z,32.43
2018-02-01T06:49:29.515Z,31.57
2018-02-01T06:51:30.476Z,38.90
2018-02-01T06:53:31.439Z,31.83
2018-02-01T06:55:32.395Z,46.33
2018-02-01T06:57:33.400Z,33.20
2018-02-01T06:59:34.383Z,38.80
2018-02-01T07:01:36.131Z,33.60
2018-02-01T07:03:37.107Z,31.90
2018-02-01T07:05:38.875Z,33.20
2018-02-01T07:07:40.677Z,31.73
2018-02-01T07:09:41.687Z,21.90
2018-02-01T07:11:42.669Z,29.67
2018-02-01T07:13:43.813Z,29.57
2018-02-01T07:15:44.804Z,29.93
2018-02-01T07:17:45.740Z,34.37
2018-02-01T07:19:46.820Z,24.77
2018-02-01T07:21:47.838Z,41.73
2018-02-01T07:23:48.976Z,36.13
2018-02-01T07:25:49.966Z,29.90
2018-02-01T07:27:51.243Z,29.27
2018-02-01T07:29:52.231Z,31.43
2018-02-01T07:31:54.253Z,22.87
2018-02-01T07:33:55.301Z,28.07
2018-02-01T07:35:56.247Z,35.23
2018-02-01T07:37:58.248Z,28.30
2018-02-01T07:39:59.295Z,38.27
2018-02-01T07:42:00.268Z,22.70
2018-02-01T07:44:01.254Z,21.87
2018-02-01T07:46:06.223Z,28.83
2018-02-01T07:48:07.321Z,16.90
2018-02-01T07:50:08.623Z,21.57
2018-02-01T07:52:09.616Z,18.00
2018-02-01T07:54:10.555Z,36.03
2018-02-01T07:56:11.548Z,26.40
2018-02-01T07:58:14.445Z,18.23
2018-02-01T08:00:16.291Z,28.87
2018-02-01T08:02:17.239Z,19.10
2018-02-01T08:04:19.133Z,24.93
2018-02-01T08:06:20.782Z,20.50
2018-02-01T08:08:27.646Z,18.10
2018-02-01T08:10:29.273Z,18.33
2018-02-01T08:12:31.136Z,16.07
2018-02-01T08:14:33.184Z,19.50
2018-02-01T08:16:34.344Z,31.17
2018-02-01T08:18:35.319Z,23.67
2018-02-01T08:20:37.201Z,24.37
2018-02-01T08:22:38.206Z,28.10
2018-02-01T08:24:39.874Z,20.93
2018-02-01T08:26:41.582Z,26.80
2018-02-01T08:28:42.584Z,15.90
2018-02-01T08:30:44.519Z,24.60
2018-02-01T08:32:45.471Z,19.33
2018-02-01T08:34:46.478Z,28.53
2018-02-01T08:36:47.451Z,17.50
2018-02-01T08:38:48.463Z,19.10
2018-02-01T08:40:49.420Z,28.60
2018-02-01T08:42:50.912Z,19.37
2018-02-01T08:44:51.934Z,20.17
2018-02-01T08:46:53.103Z,28.97
2018-02-01T08:48:54.117Z,30.17
2018-02-01T08:50:55.064Z,19.47
2018-02-01T08:52:56.042Z,23.17
2018-02-01T08:54:57.171Z,24.80
2018-02-01T08:56:58.524Z,38.97
2018-02-01T08:58:59.533Z,19.43
2018-02-01T09:01:00.760Z,19.67
2018-02-01T09:03:02.213Z,17.67
2018-02-01T09:05:03.204Z,22.13
2018-02-01T09:07:04.942Z,22.90
2018-02-01T09:09:06.024Z,14.63
2018-02-01T09:11:06.972Z,21.40
2018-02-01T09:13:07.939Z,20.53
2018-02-01T09:15:09.166Z,16.27
2018-02-01T09:17:10.185Z,22.20
2018-02-01T09:19:13.556Z,18.60
2018-02-01T09:21:21.956Z,22.83
2018-02-01T09:23:23.137Z,18.20
2018-02-01T09:25:24.884Z,25.13
2018-02-01T09:27:25.886Z,16.30
2018-02-01T09:29:27.005Z,26.30
2018-02-01T09:31:33.829Z,21.00
2018-02-01T09:33:35.596Z,18.87
2018-02-01T09:35:59.490Z,22.13
2018-02-01T09:38:05.792Z,9.80
2018-02-01T09:40:06.791Z,22.20
2018-02-01T09:42:07.763Z,14.90
2018-02-01T09:44:09.323Z,19.77
2018-02-01T09:46:32.496Z,19.07
2018-02-01T09:51:11.047Z,16.90
2018-02-01T09:53:12.226Z,16.67
2018-02-01T09:55:13.268Z,18.77
2018-02-01T09:57:14.295Z,11.70
2018-02-01T09:59:15.265Z,15.20
2018-02-01T10:01:17.380Z,11.20
2018-02-01T10:03:18.806Z,16.47
2018-02-01T10:08:04.458Z,20.63
2018-02-01T10:12:45.084Z,15.87
2018-02-01T10:14:46.563Z,14.80
2018-02-01T10:17:02.503Z,10.37
2018-02-01T10:19:04.143Z,9.33
2018-02-01T10:21:05.291Z,14.13
2018-02-01T10:30:33.994Z,18.50
2018-02-01T10:33:05.417Z,11.57
2018-02-01T10:35:06.379Z,12.67
2018-02-01T10:37:07.354Z,16.33
2018-02-01T10:39:08.311Z,20.33
2018-02-01T10:41:29.405Z,15.23
2018-02-01T10:48:26.171Z,16.83
2018-02-01T10:50:27.128Z,21.17
2018-02-01T10:52:28.124Z,21.70
2018-02-01T10:54:30.025Z,13.70
2018-02-01T10:56:30.968Z,16.60
2018-02-01T10:58:31.917Z,12.70
2018-02-01T11:00:32.893Z,16.53
2018-02-01T11:02:33.844Z,11.57
2018-02-01T11:05:00.074Z,17.07
2018-02-01T11:07:01.040Z,18.67
2018-02-01T11:09:01.998Z,21.90
2018-02-01T11:11:02.944Z,18.43
2018-02-01T11:13:03.891Z,10.53
2018-02-01T11:15:04.831Z,18.97
2018-02-01T11:19:51.426Z,15.20
2018-02-01T11:22:00.114Z,13.77
2018-02-01T11:24:04.892Z,11.30
2018-02-01T11:26:27.659Z,13.10
2018-02-01T11:33:28.304Z,16.83
2018-02-01T11:35:30.179Z,15.03
2018-02-01T11:37:40.081Z,9.60
2018-02-01T11:39:57.251Z,11.07
2018-02-01T11:42:46.781Z,11.90
2018-02-01T11:44:58.323Z,10.87
2018-02-01T11:47:02.564Z,13.17
2018-02-01T11:49:03.655Z,9.63
2018-02-01T11:51:08.997Z,9.80
2018-02-01T11:55:23.316Z,17.93
2018-02-01T11:57:28.359Z,13.47
2018-02-01T12:02:05.921Z,13.30
2018-02-01T12:08:18.628Z,18.97
2018-02-01T12:10:19.646Z,25.70
2018-02-01T12:12:20.583Z,17.77
2018-02-01T12:14:21.620Z,7.47
2018-02-01T12:16:42.383Z,10.53
2018-02-01T12:18:43.357Z,15.13
2018-02-01T12:20:53.200Z,20.07
2018-02-01T12:22:54.230Z,9.40
2018-02-01T12:25:09.716Z,13.40
2018-02-01T12:27:42.068Z,23.07
2018-02-01T12:29:48.133Z,19.47
2018-02-01T12:34:17.124Z,12.83
2018-02-01T12:38:48.137Z,12.83
2018-02-01T12:43:09.172Z,6.40
2018-02-01T12:45:28.235Z,19.17
2018-02-01T12:47:29.261Z,12.63
2018-02-01T12:49:30.223Z,13.70
2018-02-01T12:51:31.199Z,7.07
2018-02-01T12:53:32.164Z,12.43
2018-02-01T12:55:34.348Z,9.03
2018-02-01T12:57:37.552Z,9.50
2018-02-01T13:02:07.541Z,11.63
2018-02-01T13:04:08.495Z,8.63
2018-02-01T13:06:18.282Z,13.10
2018-02-01T13:08:19.287Z,10.50
2018-02-01T13:10:20.251Z,15.50
2018-02-01T13:12:21.211Z,9.93
2018-02-01T13:14:25.982Z,8.80
2018-02-01T13:16:33.023Z,13.80
2018-02-01T13:18:34.011Z,10.50
2018-02-01T13:20:35.013Z,13.20
2018-02-01T13:22:39.997Z,11.80
2018-02-01T13:24:41.053Z,6.13
2018-02-01T13:26:42.033Z,13.70
2018-02-01T13:28:42.982Z,9.03
2018-02-01T13:30:46.271Z,9.13
2018-02-01T13:32:47.333Z,9.47
2018-02-01T13:34:48.315Z,19.77
2018-02-01T13:36:49.278Z,10.00
2018-02-01T13:38:50.232Z,16.67
2018-02-01T13:40:51.177Z,10.43
2018-02-01T13:43:00.241Z,10.87
2018-02-01T13:45:01.184Z,17.83
2018-02-01T13:47:02.153Z,8.70
2018-02-01T13:49:03.099Z,11.83
2018-02-01T13:51:05.414Z,18.50
2018-02-01T13:53:06.876Z,11.77
2018-02-01T13:55:07.885Z,6.00
2018-02-01T13:59:30.787Z,8.13
2018-02-01T14:01:35.323Z,9.73
2018-02-01T14:06:04.179Z,7.33
2018-02-01T14:08:32.150Z,7.73
2018-02-01T14:10:33.978Z,13.00
2018-02-01T14:12:34.919Z,13.27
2018-02-01T14:14:35.904Z,14.87
2018-02-01T14:16:36.854Z,7.40
2018-02-01T14:18:38.873Z,10.57
2018-02-01T14:21:01.578Z,16.43
2018-02-01T14:23:02.667Z,6.23
2018-02-01T14:25:30.773Z,12.80
2018-02-01T14:30:00.843Z,17.70
2018-02-01T14:32:01.832Z,13.33
2018-02-01T14:36:18.439Z,6.00
2018-02-01T14:38:19.810Z,6.67
2018-02-01T14:40:32.008Z,8.40
2018-02-01T14:45:08.926Z,7.00
2018-02-01T14:47:09.889Z,9.40
2018-02-01T14:49:21.080Z,6.60
2018-02-01T14:51:29.144Z,16.90
2018-02-01T14:53:30.213Z,13.60
2018-02-01T14:59:50.987Z,11.13
2018-02-01T15:01:51.947Z,22.97
2018-02-01T15:03:53.119Z,9.90
2018-02-01T15:05:58.459Z,15.23
2018-02-01T15:08:01.291Z,11.00
2018-02-01T15:10:02.361Z,37.77
2018-02-01T15:12:04.893Z,12.37
2018-02-01T15:14:06.332Z,9.53
2018-02-01T15:16:07.425Z,9.10
2018-02-01T15:18:08.432Z,10.00
2018-02-01T15:20:09.460Z,13.27
2018-02-01T15:22:10.375Z,11.40
2018-02-01T15:24:12.502Z,17.13
2018-02-01T15:26:13.644Z,14.30
2018-02-01T15:28:14.675Z,14.60
2018-02-01T15:30:20.669Z,13.90
2018-02-01T15:32:21.827Z,12.17
2018-02-01T15:34:25.859Z,8.47
2018-02-01T15:36:26.875Z,16.23
2018-02-01T15:38:28.512Z,7.20
2018-02-01T15:40:29.591Z,7.80
2018-02-01T15:42:31.670Z,8.67
2018-02-01T15:44:33.833Z,13.63
2018-02-01T15:46:39.070Z,8.90
2018-02-01T15:48:41.207Z,7.30
2018-02-01T15:50:42.344Z,12.70
2018-02-01T15:52:43.386Z,8.77
2018-02-01T15:54:53.516Z,9.10
2018-02-01T15:59:22.276Z,10.53
2018-02-01T16:01:23.715Z,12.77
2018-02-01T16:03:53.962Z,7.93
2018-02-01T16:05:54.927Z,8.73
2018-02-01T16:10:24.104Z,10.57
2018-02-01T16:12:25.072Z,9.83
2018-02-01T16:14:26.032Z,13.90
2018-02-01T16:19:03.146Z,9.57
2018-02-01T16:21:23.544Z,13.50
2018-02-01T16:23:24.616Z,10.43
2018-02-01T16:25:25.607Z,18.20
2018-02-01T16:27:26.595Z,15.90
2018-02-01T16:29:55.195Z,14.57
2018-02-01T16:32:23.353Z,12.30
2018-02-01T16:34:24.322Z,15.87
2018-02-01T16:38:54.207Z,7.80
2018-02-01T16:40:55.179Z,15.53
2018-02-01T16:42:56.129Z,14.63
2018-02-01T16:44:57.197Z,12.53
2018-02-01T16:46:58.159Z,11.23
2018-02-01T16:48:59.119Z,8.30
2018-02-01T16:51:20.622Z,14.40
2018-02-01T16:53:21.708Z,9.03
2018-02-01T16:55:23.493Z,8.50
2018-02-01T17:00:03.081Z,19.13
2018-02-01T17:02:04.079Z,14.27
2018-02-01T17:04:05.039Z,15.77
2018-02-01T17:06:06.148Z,9.10
2018-02-01T17:08:07.097Z,14.30
2018-02-01T17:12:38.792Z,10.93
2018-02-01T17:14:39.729Z,15.97
2018-02-01T17:17:05.951Z,18.53
2018-02-01T17:19:06.917Z,22.03
2018-02-01T17:21:07.899Z,9.57
2018-02-01T17:23:08.876Z,13.17
2018-02-01T17:25:09.835Z,18.03
2018-02-01T17:27:10.805Z,13.27
2018-02-01T17:29:11.784Z,7.33
2018-02-01T17:31:12.751Z,8.00
2018-02-01T17:33:13.702Z,11.70
2018-02-01T17:35:14.643Z,14.40
2018-02-01T17:37:15.599Z,23.33
2018-02-01T17:39:16.536Z,11.60
2018-02-01T17:41:17.527Z,6.30
2018-02-01T17:43:18.499Z,11.23
2018-02-01T17:45:19.482Z,13.10
2018-02-01T17:47:37.386Z,10.20
2018-02-01T17:49:47.270Z,12.17
2018-02-01T17:51:48.293Z,11.17
2018-02-01T17:53:49.251Z,9.17
2018-02-01T17:55:55.785Z,10.10
2018-02-01T18:00:39.346Z,13.70
2018-02-01T18:02:40.328Z,11.40
2018-02-01T18:05:09.568Z,18.27
2018-02-01T18:09:56.225Z,10.80
2018-02-01T18:14:34.491Z,9.47
2018-02-01T18:16:35.459Z,8.47
2018-02-01T18:18:36.624Z,6.50
2018-02-01T18:20:37.609Z,22.00
2018-02-01T18:22:38.574Z,9.10
2018-02-01T18:24:39.596Z,13.67
2018-02-01T18:29:39.337Z,16.67
2018-02-01T18:32:08.823Z,10.00
2018-02-01T18:34:09.870Z,11.03
2018-02-01T18:36:10.866Z,16.70
2018-02-01T18:38:11.914Z,18.83
2018-02-01T18:42:35.087Z,15.03
2018-02-01T18:47:05.149Z,24.87
2018-02-01T18:49:06.239Z,12.90
2018-02-01T18:53:36.440Z,22.80
2018-02-01T19:02:08.279Z,14.57
2018-02-01T19:04:09.752Z,11.40
2018-02-01T19:06:14.166Z,16.63
2018-02-01T19:13:11.486Z,17.20
2018-02-01T19:15:13.769Z,23.63
2018-02-01T19:19:08.775Z,18.57
2018-02-01T19:21:09.818Z,18.30
2018-02-01T19:25:38.799Z,26.53
2018-02-01T19:27:39.824Z,26.27
2018-02-01T19:29:47.109Z,19.67
2018-02-01T19:31:49.043Z,23.77
2018-02-01T19:33:50.188Z,18.30
2018-02-01T19:35:51.675Z,21.40
2018-02-01T19:37:53.434Z,24.13
2018-02-01T19:39:57.172Z,22.30
2018-02-01T19:47:13.546Z,23.50
2018-02-01T19:49:14.526Z,23.90
2018-02-01T19:56:34.121Z,25.53
2018-02-01T20:01:25.229Z,26.63
2018-02-01T20:03:26.471Z,21.47
2018-02-01T20:05:27.593Z,23.50
2018-02-01T20:07:28.679Z,22.67
2018-02-01T20:09:29.656Z,18.70
2018-02-01T20:11:30.604Z,22.30
2018-02-01T20:13:31.551Z,18.30
2018-02-01T20:15:36.504Z,27.20
2018-02-01T20:20:53.148Z,99.20
2018-02-01T20:37:42.387Z,23.27
2018-02-01T20:39:44.528Z,29.10
2018-02-01T20:42:03.996Z,20.40
2018-02-01T20:44:04.958Z,24.83
2018-02-01T20:46:05.924Z,23.80
2018-02-01T20:48:08.018Z,18.13
2018-02-01T20:50:33.952Z,22.20
2018-02-01T20:52:35.163Z,20.47
2018-02-01T20:54:36.298Z,20.70
2018-02-01T20:56:43.810Z,18.20
2018-02-01T20:59:05.585Z,20.60
2018-02-01T21:03:43.603Z,20.87
2018-02-01T21:05:44.580Z,25.80
2018-02-01T21:07:45.632Z,24.43
2018-02-01T21:09:46.608Z,30.00
2018-02-01T21:11:47.729Z,23.07
2018-02-01T21:13:48.752Z,25.80
2018-02-01T21:15:49.838Z,28.67
2018-02-01T21:20:16.622Z,33.97
2018-02-01T21:22:18.465Z,23.50
2018-02-01T21:24:20.556Z,27.33
2018-02-01T21:26:21.564Z,32.80
2018-02-01T21:28:22.776Z,29.90
2018-02-01T21:32:56.873Z,25.07
2018-02-01T21:34:58.114Z,25.67
2018-02-01T21:39:36.775Z,31.30
2018-02-01T21:41:45.533Z,31.07
2018-02-01T21:43:46.628Z,31.13
2018-02-01T21:45:47.579Z,33.00
2018-02-01T21:50:26.660Z,30.53
2018-02-01T21:52:28.880Z,29.10
2018-02-01T21:54:30.432Z,33.40
2018-02-01T22:01:27.649Z,28.07
2018-02-01T22:03:28.718Z,23.17
2018-02-01T22:05:29.679Z,27.90
2018-02-01T22:07:35.779Z,31.57
2018-02-01T22:09:36.728Z,28.33
2018-02-01T22:11:37.770Z,34.13
2018-02-01T22:18:38.682Z,30.20
2018-02-01T22:21:04.955Z,24.97
2018-02-01T22:23:06.000Z,29.13
2018-02-01T22:25:06.944Z,29.30
2018-02-01T22:27:07.990Z,30.73
2018-02-01T22:29:35.355Z,35.50
2018-02-01T22:31:36.320Z,35.47
2018-02-01T22:33:37.290Z,35.87
2018-02-01T22:35:38.391Z,24.20
2018-02-01T22:37:45.968Z,26.60
2018-02-01T22:39:53.716Z,24.70
2018-02-01T22:41:54.857Z,30.03
2018-02-01T22:43:55.953Z,30.90
2018-02-01T22:46:06.209Z,35.13
2018-02-01T22:48:07.223Z,34.53
2018-02-01T22:50:08.937Z,32.20
2018-02-01T22:52:09.957Z,31.20
2018-02-01T22:56:48.421Z,34.77
2018-02-01T22:58:49.431Z,29.57
2018-02-01T23:00:51.242Z,41.33
2018-02-01T23:02:52.416Z,32.37
2018-02-01T23:04:53.493Z,33.87
2018-02-01T23:06:54.452Z,27.50
2018-02-01T23:08:55.503Z,25.67
2018-02-01T23:10:58.020Z,22.77
2018-02-01T23:12:59.779Z,44.43
2018-02-01T23:15:00.780Z,27.87
2018-02-01T23:17:01.850Z,36.30
2018-02-01T23:19:03.271Z,31.00
2018-02-01T23:21:04.414Z,35.37
2018-02-01T23:23:05.465Z,28.20
2018-02-01T23:27:36.318Z,32.60
2018-02-01T23:29:37.403Z,45.70
2018-02-01T23:31:38.688Z,30.70
2018-02-01T23:33:39.912Z,36.70
2018-02-01T23:35:41.263Z,31.60
2018-02-01T23:37:42.406Z,34.97
2018-02-01T23:39:43.812Z,33.57
2018-02-01T23:42:05.691Z,39.27
